« 去来2 成田国際空港 2017/10/30 mon | トップページ | 趣味的航空路誌改訂情報 2017/12/7 thu »

2017/12/04

観天 龍ヶ崎飛行場 2017/10/31 tue

近隣をウロウロしていたのですが、スケジュールがあわず、里帰り零戦には逢えずじまいです。この日、朝にドルニエさんが来ていたのを目撃したので、帰りにチョコット覗いてみた。

RJAA 311600Z 00000KT 9999 FEW030 BKN045 09/08 Q1024 NOSIG RMK 1CU030 7SC045 A3024

20171031_ryugasaki_00ja32ca

JA32CA Do228-212 CUK

通過するだけが、エンジンを廻していたので、降りてしばらく様子を見た。しかし、ランナップだけで静かになりました。

20171031_ryugasaki_01ja4132

小型機がずらーり

今日は南風。上空を成田アプローチ機がバンバン飛んでいくので、しばらく観天です。

20171031_ryugasaki_02n1611b

DAL69 KPDX-RJAA N1611B B767-332ER

20171031_ryugasaki_03n2639u

UAL837 KSFO-RJAA N2639U B777-322ER

20171031_ryugasaki_04n27903

UAL32 KLAX-RJAA N27903 B787-8

16Lアプローチ機は、機番を確認するのが厳しい。

20171031_ryugasaki_05n705dn

DAL295 KATL-RJAA N705DN B777-232LR

20171031_ryugasaki_06n155dl

DAL296 ZSPD-RJAA N155DL B767-3P6ER

20171031_ryugasaki_07ja806a

ANA171 KSJC-RJAA JA806A B787-8

20171031_ryugasaki_08ja33ha

JA33HA C172S HDA

南の方から、上空を横切っていった

RJAA 311630Z 36003KT 9999 FEW030 SCT060 10/08 Q1023 NOSIG RMK 1CU030 3SC060 A3023

20171031_ryugasaki_09n1609

DAL167 KSEA-RJAA N1609 B767-332ER

20171031_ryugasaki_10n502dn

スワッ、ニアミス? と、思ったのが・・

20171031_ryugasaki_11n502dn

DAL275 KDTW-RJAA N502DN A350-941

昨日でジャンボ最後だったデトロイトからのA350初便

20171031_ryugasaki_12ja834j

JAL736 VHHH-RJAA JA834J B787-8

20171031_ryugasaki_13ja710j

JAL781 PHNL-RJAA JA710J B777-246ER

20171031_ryugasaki_14ja831a

ANA816 WMKK-RJAA JA831A B787-8

20171031_ryugasaki_15b6331

CES521 ZSPD-RJAA B-6331 A321-211

20171031_ryugasaki_16jaxxxa

ANA???? -RJAA JA???A DHC8-402Q

さすがにこの機体の機番は認識できず

20171031_ryugasaki_17n782an

AAL169 KLAX-RJAA N782AN B777-223ER

20171031_ryugasaki_18ja838j

JAL11 KDFW-RJAA JA838J B787-8

20171031_ryugasaki_19ja874a

ANA836 WIII-RJAA JA874A B787-9

20171031_ryugasaki_20ja304j

JAL958 RKPK-RJAA JA304J B737-846

20171031_ryugasaki_21ja868j

JAL7 KBOS-RJAA JA868J B787-9

20171031_ryugasaki_22ja12rj

IBX9051 RJFF-RJAA JA12RJ CRJ-702ER

20171031_ryugasaki_23ja880a

ANA181 PHNL-RJAA JA880A B787-9

20171031_ryugasaki_24rc

ここで現れたのが、ラジコン飛行機。もう、陽が落ちそうなので家路につきます。

RJAA 311700Z 32002KT 9999 FEW030 SCT045 10/08 Q1023 NOSIG RMK 1CU030 4SC045 A3022

|

« 去来2 成田国際空港 2017/10/30 mon | トップページ | 趣味的航空路誌改訂情報 2017/12/7 thu »

成田国際空港」カテゴリの記事

場外」カテゴリの記事

コメント

コメントを書く



(ウェブ上には掲載しません)


コメントは記事投稿者が公開するまで表示されません。



トラックバック


この記事へのトラックバック一覧です: 観天 龍ヶ崎飛行場 2017/10/31 tue:

« 去来2 成田国際空港 2017/10/30 mon | トップページ | 趣味的航空路誌改訂情報 2017/12/7 thu »